sensor_id;sensor_type;location;lat;lon;timestamp;temperature;humidity
19870;DHT22;10097;50.862;4.696;2023-04-25T00:02:09;10.10;99.90
19870;DHT22;10097;50.862;4.696;2023-04-25T00:04:35;10.10;99.90
19870;DHT22;10097;50.862;4.696;2023-04-25T00:07:03;10.10;99.90
19870;DHT22;10097;50.862;4.696;2023-04-25T00:09:29;10.00;99.90
19870;DHT22;10097;50.862;4.696;2023-04-25T00:11:55;10.10;99.90
19870;DHT22;10097;50.862;4.696;2023-04-25T00:14:21;10.10;99.90
19870;DHT22;10097;50.862;4.696;2023-04-25T00:16:48;10.10;99.90
19870;DHT22;10097;50.862;4.696;2023-04-25T00:19:13;10.10;99.90
19870;DHT22;10097;50.862;4.696;2023-04-25T00:21:39;10.10;99.90
19870;DHT22;10097;50.862;4.696;2023-04-25T00:24:08;10.10;99.90
19870;DHT22;10097;50.862;4.696;2023-04-25T00:26:34;10.00;99.90
19870;DHT22;10097;50.862;4.696;2023-04-25T00:29:01;9.90;99.90
19870;DHT22;10097;50.862;4.696;2023-04-25T00:31:27;9.80;99.90
19870;DHT22;10097;50.862;4.696;2023-04-25T00:33:54;9.70;99.90
19870;DHT22;10097;50.862;4.696;2023-04-25T00:36:20;9.70;99.90
19870;DHT22;10097;50.862;4.696;2023-04-25T00:38:46;9.80;99.90
19870;DHT22;10097;50.862;4.696;2023-04-25T00:41:11;9.90;99.90
19870;DHT22;10097;50.862;4.696;2023-04-25T00:43:37;9.90;99.90
19870;DHT22;10097;50.862;4.696;2023-04-25T00:46:03;9.90;99.90
19870;DHT22;10097;50.862;4.696;2023-04-25T00:48:29;9.70;99.90
19870;DHT22;10097;50.862;4.696;2023-04-25T00:50:58;9.80;99.90
19870;DHT22;10097;50.862;4.696;2023-04-25T00:53:26;9.90;99.90
19870;DHT22;10097;50.862;4.696;2023-04-25T00:55:52;9.90;99.90
19870;DHT22;10097;50.862;4.696;2023-04-25T00:58:19;9.90;99.90
19870;DHT22;10097;50.862;4.696;2023-04-25T01:00:49;9.90;99.90
19870;DHT22;10097;50.862;4.696;2023-04-25T01:03:16;10.00;99.90
19870;DHT22;10097;50.862;4.696;2023-04-25T01:05:43;9.90;99.90
19870;DHT22;10097;50.862;4.696;2023-04-25T01:08:09;9.80;99.90
19870;DHT22;10097;50.862;4.696;2023-04-25T01:10:35;9.80;99.90
19870;DHT22;10097;50.862;4.696;2023-04-25T01:13:01;9.60;99.90
19870;DHT22;10097;50.862;4.696;2023-04-25T01:15:27;9.60;99.90
19870;DHT22;10097;50.862;4.696;2023-04-25T01:17:53;9.60;99.90
19870;DHT22;10097;50.862;4.696;2023-04-25T01:20:21;9.50;99.90
19870;DHT22;10097;50.862;4.696;2023-04-25T01:22:49;9.40;99.90
19870;DHT22;10097;50.862;4.696;2023-04-25T01:25:16;9.30;99.90
19870;DHT22;10097;50.862;4.696;2023-04-25T01:27:42;9.30;99.90
19870;DHT22;10097;50.862;4.696;2023-04-25T01:30:08;9.30;99.90
19870;DHT22;10097;50.862;4.696;2023-04-25T01:32:34;9.30;99.90
19870;DHT22;10097;50.862;4.696;2023-04-25T01:35:08;9.30;99.90
19870;DHT22;10097;50.862;4.696;2023-04-25T01:37:38;9.30;99.90
19870;DHT22;10097;50.862;4.696;2023-04-25T01:40:05;9.10;99.90
19870;DHT22;10097;50.862;4.696;2023-04-25T01:42:32;8.90;99.90
19870;DHT22;10097;50.862;4.696;2023-04-25T01:44:58;9.00;99.90
19870;DHT22;10097;50.862;4.696;2023-04-25T01:47:24;9.00;99.90
19870;DHT22;10097;50.862;4.696;2023-04-25T01:49:50;9.00;99.90
19870;DHT22;10097;50.862;4.696;2023-04-25T01:52:15;8.90;99.90
19870;DHT22;10097;50.862;4.696;2023-04-25T01:54:41;8.80;99.90
19870;DHT22;10097;50.862;4.696;2023-04-25T01:57:10;8.80;99.90
19870;DHT22;10097;50.862;4.696;2023-04-25T01:59:36;8.90;99.90
19870;DHT22;10097;50.862;4.696;2023-04-25T02:02:02;8.90;99.90
19870;DHT22;10097;50.862;4.696;2023-04-25T02:04:30;9.00;99.90
19870;DHT22;10097;50.862;4.696;2023-04-25T02:06:55;8.80;99.90
19870;DHT22;10097;50.862;4.696;2023-04-25T02:09:21;8.80;99.90
19870;DHT22;10097;50.862;4.696;2023-04-25T02:11:47;8.70;99.90
19870;DHT22;10097;50.862;4.696;2023-04-25T02:14:13;8.60;99.90
19870;DHT22;10097;50.862;4.696;2023-04-25T02:16:38;8.60;99.90
19870;DHT22;10097;50.862;4.696;2023-04-25T02:19:05;8.70;99.90
19870;DHT22;10097;50.862;4.696;2023-04-25T02:21:31;8.60;99.90
19870;DHT22;10097;50.862;4.696;2023-04-25T02:23:57;8.50;99.90
19870;DHT22;10097;50.862;4.696;2023-04-25T02:26:23;8.60;99.90
19870;DHT22;10097;50.862;4.696;2023-04-25T02:28:49;8.70;99.90
19870;DHT22;10097;50.862;4.696;2023-04-25T02:31:16;8.70;99.90
19870;DHT22;10097;50.862;4.696;2023-04-25T02:33:42;8.80;99.90
19870;DHT22;10097;50.862;4.696;2023-04-25T02:36:07;8.70;99.90
19870;DHT22;10097;50.862;4.696;2023-04-25T02:38:33;8.60;99.90
19870;DHT22;10097;50.862;4.696;2023-04-25T02:40:59;8.70;99.90
19870;DHT22;10097;50.862;4.696;2023-04-25T02:43:24;8.80;99.90
19870;DHT22;10097;50.862;4.696;2023-04-25T02:45:50;8.90;99.90
19870;DHT22;10097;50.862;4.696;2023-04-25T02:48:16;8.90;99.90
19870;DHT22;10097;50.862;4.696;2023-04-25T02:50:42;8.90;99.90
19870;DHT22;10097;50.862;4.696;2023-04-25T02:53:07;8.80;99.90
19870;DHT22;10097;50.862;4.696;2023-04-25T02:55:33;8.70;99.90
19870;DHT22;10097;50.862;4.696;2023-04-25T02:57:59;8.70;99.90
19870;DHT22;10097;50.862;4.696;2023-04-25T03:00:24;8.70;99.90
19870;DHT22;10097;50.862;4.696;2023-04-25T03:02:50;8.60;99.90
19870;DHT22;10097;50.862;4.696;2023-04-25T03:05:17;8.60;99.90
19870;DHT22;10097;50.862;4.696;2023-04-25T03:07:43;8.70;99.90
19870;DHT22;10097;50.862;4.696;2023-04-25T03:10:10;8.70;99.90
19870;DHT22;10097;50.862;4.696;2023-04-25T03:12:36;8.70;99.90
19870;DHT22;10097;50.862;4.696;2023-04-25T03:15:02;8.60;99.90
19870;DHT22;10097;50.862;4.696;2023-04-25T03:17:28;8.50;99.90
19870;DHT22;10097;50.862;4.696;2023-04-25T03:19:54;8.50;99.90
19870;DHT22;10097;50.862;4.696;2023-04-25T03:22:19;8.60;99.90
19870;DHT22;10097;50.862;4.696;2023-04-25T03:24:45;8.50;99.90
19870;DHT22;10097;50.862;4.696;2023-04-25T03:27:11;8.40;99.90
19870;DHT22;10097;50.862;4.696;2023-04-25T03:29:39;8.50;99.90
19870;DHT22;10097;50.862;4.696;2023-04-25T03:32:05;8.60;99.90
19870;DHT22;10097;50.862;4.696;2023-04-25T03:34:31;8.60;99.90
19870;DHT22;10097;50.862;4.696;2023-04-25T03:36:57;8.70;99.90
19870;DHT22;10097;50.862;4.696;2023-04-25T03:39:23;8.60;99.90
19870;DHT22;10097;50.862;4.696;2023-04-25T03:41:48;8.60;99.90
19870;DHT22;10097;50.862;4.696;2023-04-25T03:44:14;8.70;99.90
19870;DHT22;10097;50.862;4.696;2023-04-25T03:46:40;8.70;99.90
19870;DHT22;10097;50.862;4.696;2023-04-25T03:49:05;8.50;99.90
19870;DHT22;10097;50.862;4.696;2023-04-25T03:51:31;8.20;99.90
19870;DHT22;10097;50.862;4.696;2023-04-25T03:53:57;8.00;99.90
19870;DHT22;10097;50.862;4.696;2023-04-25T03:56:23;7.80;99.90
19870;DHT22;10097;50.862;4.696;2023-04-25T03:58:49;7.80;99.90
19870;DHT22;10097;50.862;4.696;2023-04-25T04:01:14;7.80;99.90
19870;DHT22;10097;50.862;4.696;2023-04-25T04:03:40;7.70;99.90
19870;DHT22;10097;50.862;4.696;2023-04-25T04:06:07;7.60;99.90
19870;DHT22;10097;50.862;4.696;2023-04-25T04:08:33;7.70;99.90
19870;DHT22;10097;50.862;4.696;2023-04-25T04:10:59;7.60;99.90
19870;DHT22;10097;50.862;4.696;2023-04-25T04:13:29;7.70;99.90
19870;DHT22;10097;50.862;4.696;2023-04-25T04:15:55;7.50;99.90
19870;DHT22;10097;50.862;4.696;2023-04-25T04:18:21;7.50;99.90
19870;DHT22;10097;50.862;4.696;2023-04-25T04:20:47;7.50;99.90
19870;DHT22;10097;50.862;4.696;2023-04-25T04:23:13;7.50;99.90
19870;DHT22;10097;50.862;4.696;2023-04-25T04:25:39;7.60;99.90
19870;DHT22;10097;50.862;4.696;2023-04-25T04:28:05;7.60;99.90
19870;DHT22;10097;50.862;4.696;2023-04-25T04:30:31;7.70;99.90
19870;DHT22;10097;50.862;4.696;2023-04-25T04:32:59;7.80;99.90
19870;DHT22;10097;50.862;4.696;2023-04-25T04:35:26;7.80;99.90
19870;DHT22;10097;50.862;4.696;2023-04-25T04:37:52;7.90;99.90
19870;DHT22;10097;50.862;4.696;2023-04-25T04:40:18;8.00;99.90
19870;DHT22;10097;50.862;4.696;2023-04-25T04:42:45;8.00;99.90
19870;DHT22;10097;50.862;4.696;2023-04-25T04:45:11;8.10;99.90
19870;DHT22;10097;50.862;4.696;2023-04-25T04:47:38;8.10;99.90
19870;DHT22;10097;50.862;4.696;2023-04-25T04:50:06;8.20;99.90
19870;DHT22;10097;50.862;4.696;2023-04-25T04:52:34;8.20;99.90
19870;DHT22;10097;50.862;4.696;2023-04-25T04:55:00;8.20;99.90
19870;DHT22;10097;50.862;4.696;2023-04-25T04:57:25;8.10;99.90
19870;DHT22;10097;50.862;4.696;2023-04-25T04:59:52;8.20;99.90
19870;DHT22;10097;50.862;4.696;2023-04-25T05:02:17;8.30;99.90
19870;DHT22;10097;50.862;4.696;2023-04-25T05:04:43;8.30;99.90
19870;DHT22;10097;50.862;4.696;2023-04-25T05:07:09;8.10;99.90
19870;DHT22;10097;50.862;4.696;2023-04-25T05:09:35;8.10;99.90
19870;DHT22;10097;50.862;4.696;2023-04-25T05:12:00;8.10;99.90
19870;DHT22;10097;50.862;4.696;2023-04-25T05:14:26;8.10;99.90
19870;DHT22;10097;50.862;4.696;2023-04-25T05:16:52;8.10;99.90
19870;DHT22;10097;50.862;4.696;2023-04-25T05:19:17;8.10;99.90
19870;DHT22;10097;50.862;4.696;2023-04-25T05:21:43;8.20;99.90
19870;DHT22;10097;50.862;4.696;2023-04-25T05:24:09;8.10;99.90
19870;DHT22;10097;50.862;4.696;2023-04-25T05:26:35;8.10;99.90
19870;DHT22;10097;50.862;4.696;2023-04-25T05:29:00;8.00;99.90
19870;DHT22;10097;50.862;4.696;2023-04-25T05:31:26;8.00;99.90
19870;DHT22;10097;50.862;4.696;2023-04-25T05:33:52;8.00;99.90
19870;DHT22;10097;50.862;4.696;2023-04-25T05:36:20;8.00;99.90
19870;DHT22;10097;50.862;4.696;2023-04-25T05:38:46;8.00;99.90
19870;DHT22;10097;50.862;4.696;2023-04-25T05:41:12;7.80;99.90
19870;DHT22;10097;50.862;4.696;2023-04-25T05:43:38;7.70;99.90
19870;DHT22;10097;50.862;4.696;2023-04-25T05:46:04;7.60;99.90
19870;DHT22;10097;50.862;4.696;2023-04-25T05:48:30;7.70;99.90
19870;DHT22;10097;50.862;4.696;2023-04-25T05:50:55;7.70;99.90
19870;DHT22;10097;50.862;4.696;2023-04-25T05:53:21;7.80;99.90
19870;DHT22;10097;50.862;4.696;2023-04-25T05:55:47;7.80;99.90
19870;DHT22;10097;50.862;4.696;2023-04-25T05:58:15;7.90;99.90
19870;DHT22;10097;50.862;4.696;2023-04-25T06:00:41;8.00;99.90
19870;DHT22;10097;50.862;4.696;2023-04-25T06:03:07;8.00;99.90
19870;DHT22;10097;50.862;4.696;2023-04-25T06:05:35;8.10;99.90
19870;DHT22;10097;50.862;4.696;2023-04-25T06:08:00;8.10;99.90
19870;DHT22;10097;50.862;4.696;2023-04-25T06:10:26;7.80;99.90
19870;DHT22;10097;50.862;4.696;2023-04-25T06:12:52;7.70;99.90
19870;DHT22;10097;50.862;4.696;2023-04-25T06:15:18;7.80;99.90
19870;DHT22;10097;50.862;4.696;2023-04-25T06:17:43;8.00;99.90
19870;DHT22;10097;50.862;4.696;2023-04-25T06:20:09;8.20;99.90
19870;DHT22;10097;50.862;4.696;2023-04-25T06:22:35;8.30;99.90
19870;DHT22;10097;50.862;4.696;2023-04-25T06:25:01;8.30;99.90
19870;DHT22;10097;50.862;4.696;2023-04-25T06:27:29;8.40;99.90
19870;DHT22;10097;50.862;4.696;2023-04-25T06:29:55;8.60;99.90
19870;DHT22;10097;50.862;4.696;2023-04-25T06:32:20;8.70;99.90
19870;DHT22;10097;50.862;4.696;2023-04-25T06:34:46;8.90;99.90
19870;DHT22;10097;50.862;4.696;2023-04-25T06:37:12;8.90;99.90
19870;DHT22;10097;50.862;4.696;2023-04-25T06:39:38;9.00;99.90
19870;DHT22;10097;50.862;4.696;2023-04-25T06:42:03;9.10;99.90
19870;DHT22;10097;50.862;4.696;2023-04-25T06:44:29;9.00;99.90
19870;DHT22;10097;50.862;4.696;2023-04-25T06:46:55;9.10;99.90
19870;DHT22;10097;50.862;4.696;2023-04-25T06:49:21;9.10;99.90
19870;DHT22;10097;50.862;4.696;2023-04-25T06:51:47;9.10;99.90
19870;DHT22;10097;50.862;4.696;2023-04-25T06:54:13;9.30;99.90
19870;DHT22;10097;50.862;4.696;2023-04-25T06:56:39;9.40;99.90
19870;DHT22;10097;50.862;4.696;2023-04-25T06:59:05;9.60;99.90
19870;DHT22;10097;50.862;4.696;2023-04-25T07:01:30;9.80;99.90
19870;DHT22;10097;50.862;4.696;2023-04-25T07:03:56;10.10;99.90
19870;DHT22;10097;50.862;4.696;2023-04-25T07:06:21;10.20;99.90
19870;DHT22;10097;50.862;4.696;2023-04-25T07:08:47;10.20;99.90
19870;DHT22;10097;50.862;4.696;2023-04-25T07:11:13;10.20;99.90
19870;DHT22;10097;50.862;4.696;2023-04-25T07:13:38;10.20;99.90
19870;DHT22;10097;50.862;4.696;2023-04-25T07:16:04;10.10;99.90
19870;DHT22;10097;50.862;4.696;2023-04-25T07:18:30;10.00;99.90
19870;DHT22;10097;50.862;4.696;2023-04-25T07:20:56;10.00;99.90
19870;DHT22;10097;50.862;4.696;2023-04-25T07:23:21;10.00;99.90
19870;DHT22;10097;50.862;4.696;2023-04-25T07:25:47;10.20;99.90
19870;DHT22;10097;50.862;4.696;2023-04-25T07:28:13;10.40;99.90
19870;DHT22;10097;50.862;4.696;2023-04-25T07:30:39;10.50;99.90
19870;DHT22;10097;50.862;4.696;2023-04-25T07:33:04;10.70;99.90
19870;DHT22;10097;50.862;4.696;2023-04-25T07:35:30;10.90;99.90
19870;DHT22;10097;50.862;4.696;2023-04-25T07:37:56;11.00;99.90
19870;DHT22;10097;50.862;4.696;2023-04-25T07:40:21;10.80;99.90
19870;DHT22;10097;50.862;4.696;2023-04-25T07:42:47;11.00;99.90
19870;DHT22;10097;50.862;4.696;2023-04-25T07:45:12;11.20;99.90
19870;DHT22;10097;50.862;4.696;2023-04-25T07:47:38;11.00;99.90
19870;DHT22;10097;50.862;4.696;2023-04-25T07:50:05;11.10;99.90
19870;DHT22;10097;50.862;4.696;2023-04-25T07:52:32;10.90;99.90
19870;DHT22;10097;50.862;4.696;2023-04-25T07:54:58;11.10;99.90
19870;DHT22;10097;50.862;4.696;2023-04-25T07:57:24;11.30;99.90
19870;DHT22;10097;50.862;4.696;2023-04-25T07:59:50;11.60;99.90
19870;DHT22;10097;50.862;4.696;2023-04-25T08:02:16;11.60;99.90
19870;DHT22;10097;50.862;4.696;2023-04-25T08:04:42;11.70;99.90
19870;DHT22;10097;50.862;4.696;2023-04-25T08:07:08;11.70;99.90
19870;DHT22;10097;50.862;4.696;2023-04-25T08:09:33;12.10;99.90
19870;DHT22;10097;50.862;4.696;2023-04-25T08:12:00;11.90;99.90
19870;DHT22;10097;50.862;4.696;2023-04-25T08:14:27;12.20;99.90
19870;DHT22;10097;50.862;4.696;2023-04-25T08:16:54;12.30;99.90
19870;DHT22;10097;50.862;4.696;2023-04-25T08:19:20;12.00;99.90
19870;DHT22;10097;50.862;4.696;2023-04-25T08:21:46;11.70;99.90
19870;DHT22;10097;50.862;4.696;2023-04-25T08:24:11;11.30;99.90
19870;DHT22;10097;50.862;4.696;2023-04-25T08:26:37;11.00;99.90
19870;DHT22;10097;50.862;4.696;2023-04-25T08:29:03;10.50;99.90
19870;DHT22;10097;50.862;4.696;2023-04-25T08:31:29;10.30;99.90
19870;DHT22;10097;50.862;4.696;2023-04-25T08:33:55;10.10;99.90
19870;DHT22;10097;50.862;4.696;2023-04-25T08:36:21;9.70;99.90
19870;DHT22;10097;50.862;4.696;2023-04-25T08:38:46;9.60;99.90
19870;DHT22;10097;50.862;4.696;2023-04-25T08:41:13;9.40;99.90
19870;DHT22;10097;50.862;4.696;2023-04-25T08:43:42;9.20;99.90
19870;DHT22;10097;50.862;4.696;2023-04-25T08:46:09;9.20;99.90
19870;DHT22;10097;50.862;4.696;2023-04-25T08:48:35;9.00;99.90
19870;DHT22;10097;50.862;4.696;2023-04-25T08:51:02;8.80;99.90
19870;DHT22;10097;50.862;4.696;2023-04-25T08:53:32;8.90;99.90
19870;DHT22;10097;50.862;4.696;2023-04-25T08:56:00;8.90;99.90
19870;DHT22;10097;50.862;4.696;2023-04-25T08:58:28;9.00;99.90
19870;DHT22;10097;50.862;4.696;2023-04-25T09:00:54;9.10;99.90
19870;DHT22;10097;50.862;4.696;2023-04-25T09:03:19;9.60;99.90
19870;DHT22;10097;50.862;4.696;2023-04-25T09:05:45;10.00;99.90
19870;DHT22;10097;50.862;4.696;2023-04-25T09:08:11;10.30;99.90
19870;DHT22;10097;50.862;4.696;2023-04-25T09:10:38;10.50;99.90
19870;DHT22;10097;50.862;4.696;2023-04-25T09:13:10;10.40;99.90
19870;DHT22;10097;50.862;4.696;2023-04-25T09:16:09;10.40;99.90
19870;DHT22;10097;50.862;4.696;2023-04-25T09:18:35;10.50;99.90
19870;DHT22;10097;50.862;4.696;2023-04-25T09:21:22;10.50;99.90
19870;DHT22;10097;50.862;4.696;2023-04-25T09:23:48;10.80;99.90
19870;DHT22;10097;50.862;4.696;2023-04-25T09:26:19;11.10;99.90
19870;DHT22;10097;50.862;4.696;2023-04-25T09:28:46;11.70;99.90
19870;DHT22;10097;50.862;4.696;2023-04-25T09:31:24;12.20;99.90
19870;DHT22;10097;50.862;4.696;2023-04-25T09:33:49;11.80;99.90
19870;DHT22;10097;50.862;4.696;2023-04-25T09:36:15;11.40;99.90
19870;DHT22;10097;50.862;4.696;2023-04-25T09:38:45;11.30;99.90
19870;DHT22;10097;50.862;4.696;2023-04-25T09:41:11;11.10;99.90
19870;DHT22;10097;50.862;4.696;2023-04-25T09:43:38;11.00;99.90
19870;DHT22;10097;50.862;4.696;2023-04-25T09:46:10;10.80;99.90
19870;DHT22;10097;50.862;4.696;2023-04-25T09:48:37;10.70;99.90
19870;DHT22;10097;50.862;4.696;2023-04-25T09:51:10;10.40;99.90
19870;DHT22;10097;50.862;4.696;2023-04-25T09:53:38;10.40;99.90
19870;DHT22;10097;50.862;4.696;2023-04-25T09:56:05;10.60;99.90
19870;DHT22;10097;50.862;4.696;2023-04-25T09:58:32;10.50;99.90
19870;DHT22;10097;50.862;4.696;2023-04-25T10:01:00;10.50;99.90
19870;DHT22;10097;50.862;4.696;2023-04-25T10:03:31;10.60;99.90
19870;DHT22;10097;50.862;4.696;2023-04-25T10:06:01;10.80;99.90
19870;DHT22;10097;50.862;4.696;2023-04-25T10:08:38;11.20;99.90
19870;DHT22;10097;50.862;4.696;2023-04-25T10:11:07;11.30;99.90
19870;DHT22;10097;50.862;4.696;2023-04-25T10:13:34;11.30;99.90
19870;DHT22;10097;50.862;4.696;2023-04-25T10:16:02;11.10;99.90
19870;DHT22;10097;50.862;4.696;2023-04-25T10:18:29;11.00;99.90
19870;DHT22;10097;50.862;4.696;2023-04-25T10:21:01;11.30;99.90
19870;DHT22;10097;50.862;4.696;2023-04-25T10:23:29;11.70;99.90
19870;DHT22;10097;50.862;4.696;2023-04-25T10:25:56;12.10;99.90
19870;DHT22;10097;50.862;4.696;2023-04-25T10:28:22;12.40;99.90
19870;DHT22;10097;50.862;4.696;2023-04-25T10:31:06;13.00;99.90
19870;DHT22;10097;50.862;4.696;2023-04-25T10:33:37;13.50;99.90
19870;DHT22;10097;50.862;4.696;2023-04-25T10:38:39;13.10;99.90
19870;DHT22;10097;50.862;4.696;2023-04-25T10:41:06;12.80;99.90
19870;DHT22;10097;50.862;4.696;2023-04-25T10:43:35;12.80;99.90
19870;DHT22;10097;50.862;4.696;2023-04-25T10:46:02;12.40;99.90
19870;DHT22;10097;50.862;4.696;2023-04-25T10:48:30;12.20;99.90
19870;DHT22;10097;50.862;4.696;2023-04-25T10:51:09;12.30;99.90
19870;DHT22;10097;50.862;4.696;2023-04-25T10:53:35;12.50;99.90
19870;DHT22;10097;50.862;4.696;2023-04-25T10:56:08;12.40;99.90
19870;DHT22;10097;50.862;4.696;2023-04-25T10:58:34;12.70;99.90
19870;DHT22;10097;50.862;4.696;2023-04-25T11:01:01;13.00;99.90
19870;DHT22;10097;50.862;4.696;2023-04-25T11:03:27;13.70;99.90
19870;DHT22;10097;50.862;4.696;2023-04-25T11:05:53;14.50;99.90
19870;DHT22;10097;50.862;4.696;2023-04-25T11:08:37;14.30;99.90
19870;DHT22;10097;50.862;4.696;2023-04-25T11:11:08;14.20;99.90
19870;DHT22;10097;50.862;4.696;2023-04-25T11:13:34;14.10;99.90
19870;DHT22;10097;50.862;4.696;2023-04-25T11:16:00;14.00;99.90
19870;DHT22;10097;50.862;4.696;2023-04-25T11:18:26;13.80;99.90
19870;DHT22;10097;50.862;4.696;2023-04-25T11:20:52;13.40;99.90
19870;DHT22;10097;50.862;4.696;2023-04-25T11:23:18;13.30;99.90
19870;DHT22;10097;50.862;4.696;2023-04-25T11:25:44;13.10;99.90
19870;DHT22;10097;50.862;4.696;2023-04-25T11:28:10;12.80;99.90
19870;DHT22;10097;50.862;4.696;2023-04-25T11:30:35;12.50;99.90
19870;DHT22;10097;50.862;4.696;2023-04-25T11:33:01;12.30;99.90
19870;DHT22;10097;50.862;4.696;2023-04-25T11:35:28;12.00;99.90
19870;DHT22;10097;50.862;4.696;2023-04-25T11:37:54;11.80;99.90
19870;DHT22;10097;50.862;4.696;2023-04-25T11:40:20;11.60;99.90
19870;DHT22;10097;50.862;4.696;2023-04-25T11:42:46;11.60;99.90
19870;DHT22;10097;50.862;4.696;2023-04-25T11:45:13;11.60;99.90
19870;DHT22;10097;50.862;4.696;2023-04-25T11:47:39;11.60;99.90
19870;DHT22;10097;50.862;4.696;2023-04-25T11:50:06;11.80;99.90
19870;DHT22;10097;50.862;4.696;2023-04-25T11:52:51;11.90;99.90
19870;DHT22;10097;50.862;4.696;2023-04-25T11:55:19;12.10;99.90
19870;DHT22;10097;50.862;4.696;2023-04-25T11:57:47;12.10;99.90
19870;DHT22;10097;50.862;4.696;2023-04-25T12:00:21;12.40;99.90
19870;DHT22;10097;50.862;4.696;2023-04-25T12:02:50;12.70;99.90
19870;DHT22;10097;50.862;4.696;2023-04-25T12:05:16;13.30;99.90
19870;DHT22;10097;50.862;4.696;2023-04-25T12:07:42;14.00;99.90
19870;DHT22;10097;50.862;4.696;2023-04-25T12:10:10;14.40;99.90
19870;DHT22;10097;50.862;4.696;2023-04-25T12:12:37;14.40;99.90
19870;DHT22;10097;50.862;4.696;2023-04-25T12:15:14;14.60;99.90
19870;DHT22;10097;50.862;4.696;2023-04-25T12:17:42;14.60;99.90
19870;DHT22;10097;50.862;4.696;2023-04-25T12:20:14;14.20;99.90
19870;DHT22;10097;50.862;4.696;2023-04-25T12:22:47;14.50;99.90
19870;DHT22;10097;50.862;4.696;2023-04-25T12:25:39;14.70;99.90
19870;DHT22;10097;50.862;4.696;2023-04-25T12:31:00;14.40;99.90
19870;DHT22;10097;50.862;4.696;2023-04-25T12:33:29;14.30;99.90
19870;DHT22;10097;50.862;4.696;2023-04-25T12:35:56;14.10;99.90
19870;DHT22;10097;50.862;4.696;2023-04-25T12:38:26;14.10;99.90
19870;DHT22;10097;50.862;4.696;2023-04-25T12:40:53;14.60;99.90
19870;DHT22;10097;50.862;4.696;2023-04-25T12:43:19;14.60;99.90
19870;DHT22;10097;50.862;4.696;2023-04-25T12:45:48;14.90;99.90
19870;DHT22;10097;50.862;4.696;2023-04-25T12:48:15;14.30;99.90
19870;DHT22;10097;50.862;4.696;2023-04-25T12:50:41;13.80;99.90
19870;DHT22;10097;50.862;4.696;2023-04-25T12:53:06;13.70;99.90
19870;DHT22;10097;50.862;4.696;2023-04-25T12:55:33;13.50;99.90
19870;DHT22;10097;50.862;4.696;2023-04-25T12:57:59;13.80;99.90
19870;DHT22;10097;50.862;4.696;2023-04-25T13:00:25;14.10;99.90
19870;DHT22;10097;50.862;4.696;2023-04-25T13:02:51;14.60;99.90
19870;DHT22;10097;50.862;4.696;2023-04-25T13:05:17;14.50;99.90
19870;DHT22;10097;50.862;4.696;2023-04-25T13:07:43;14.50;99.90
19870;DHT22;10097;50.862;4.696;2023-04-25T13:10:08;14.70;99.90
19870;DHT22;10097;50.862;4.696;2023-04-25T13:12:34;15.00;99.90
19870;DHT22;10097;50.862;4.696;2023-04-25T13:15:00;14.90;99.90
19870;DHT22;10097;50.862;4.696;2023-04-25T13:17:26;15.40;99.90
19870;DHT22;10097;50.862;4.696;2023-04-25T13:19:51;15.90;99.90
19870;DHT22;10097;50.862;4.696;2023-04-25T13:22:17;16.10;99.90
19870;DHT22;10097;50.862;4.696;2023-04-25T13:24:45;16.10;99.90
19870;DHT22;10097;50.862;4.696;2023-04-25T13:27:11;15.90;99.90
19870;DHT22;10097;50.862;4.696;2023-04-25T13:29:37;16.10;99.90
19870;DHT22;10097;50.862;4.696;2023-04-25T13:32:04;15.70;99.90
19870;DHT22;10097;50.862;4.696;2023-04-25T13:34:30;15.00;99.90
19870;DHT22;10097;50.862;4.696;2023-04-25T13:36:56;14.50;99.90
19870;DHT22;10097;50.862;4.696;2023-04-25T13:39:22;14.10;99.90
19870;DHT22;10097;50.862;4.696;2023-04-25T13:41:47;14.20;99.90
19870;DHT22;10097;50.862;4.696;2023-04-25T13:44:18;14.60;99.90
19870;DHT22;10097;50.862;4.696;2023-04-25T13:46:44;15.20;99.90
19870;DHT22;10097;50.862;4.696;2023-04-25T13:49:11;15.30;99.90
19870;DHT22;10097;50.862;4.696;2023-04-25T13:51:37;15.30;99.90
19870;DHT22;10097;50.862;4.696;2023-04-25T13:54:03;14.90;99.90
19870;DHT22;10097;50.862;4.696;2023-04-25T13:56:29;14.50;99.90
19870;DHT22;10097;50.862;4.696;2023-04-25T13:58:55;14.60;99.90
19870;DHT22;10097;50.862;4.696;2023-04-25T14:01:22;14.50;99.90
19870;DHT22;10097;50.862;4.696;2023-04-25T14:03:47;14.50;99.90
19870;DHT22;10097;50.862;4.696;2023-04-25T14:06:13;15.40;99.90
19870;DHT22;10097;50.862;4.696;2023-04-25T14:08:39;15.90;99.90
19870;DHT22;10097;50.862;4.696;2023-04-25T14:11:04;16.10;99.90
19870;DHT22;10097;50.862;4.696;2023-04-25T14:13:30;16.60;99.90
19870;DHT22;10097;50.862;4.696;2023-04-25T14:15:56;16.20;99.90
19870;DHT22;10097;50.862;4.696;2023-04-25T14:18:22;15.20;99.90
19870;DHT22;10097;50.862;4.696;2023-04-25T14:20:48;14.40;99.90
19870;DHT22;10097;50.862;4.696;2023-04-25T14:23:13;13.90;99.90
19870;DHT22;10097;50.862;4.696;2023-04-25T14:25:39;13.70;99.90
19870;DHT22;10097;50.862;4.696;2023-04-25T14:28:07;13.30;99.90
19870;DHT22;10097;50.862;4.696;2023-04-25T14:30:32;13.20;99.90
19870;DHT22;10097;50.862;4.696;2023-04-25T14:32:58;12.90;99.90
19870;DHT22;10097;50.862;4.696;2023-04-25T14:35:24;12.80;99.90
19870;DHT22;10097;50.862;4.696;2023-04-25T14:37:49;12.70;99.90
19870;DHT22;10097;50.862;4.696;2023-04-25T14:40:15;12.80;99.90
19870;DHT22;10097;50.862;4.696;2023-04-25T14:42:42;13.40;99.90
19870;DHT22;10097;50.862;4.696;2023-04-25T14:45:08;14.50;99.90
19870;DHT22;10097;50.862;4.696;2023-04-25T14:47:38;15.40;99.90
19870;DHT22;10097;50.862;4.696;2023-04-25T14:50:05;15.80;99.90
19870;DHT22;10097;50.862;4.696;2023-04-25T14:52:31;15.90;99.90
19870;DHT22;10097;50.862;4.696;2023-04-25T14:54:56;16.30;99.90
19870;DHT22;10097;50.862;4.696;2023-04-25T14:57:22;16.30;99.90
19870;DHT22;10097;50.862;4.696;2023-04-25T14:59:47;15.70;99.90
19870;DHT22;10097;50.862;4.696;2023-04-25T15:02:13;15.10;99.90
19870;DHT22;10097;50.862;4.696;2023-04-25T15:04:39;15.30;99.90
19870;DHT22;10097;50.862;4.696;2023-04-25T15:07:05;15.10;99.90
19870;DHT22;10097;50.862;4.696;2023-04-25T15:09:30;14.70;99.90
19870;DHT22;10097;50.862;4.696;2023-04-25T15:11:57;14.50;99.90
19870;DHT22;10097;50.862;4.696;2023-04-25T15:14:22;13.90;99.90
19870;DHT22;10097;50.862;4.696;2023-04-25T15:16:48;14.00;99.90
19870;DHT22;10097;50.862;4.696;2023-04-25T15:19:14;13.90;99.90
19870;DHT22;10097;50.862;4.696;2023-04-25T15:21:40;13.80;99.90
19870;DHT22;10097;50.862;4.696;2023-04-25T15:24:06;13.70;99.90
19870;DHT22;10097;50.862;4.696;2023-04-25T15:26:31;13.30;99.90
19870;DHT22;10097;50.862;4.696;2023-04-25T15:28:57;13.20;99.90
19870;DHT22;10097;50.862;4.696;2023-04-25T15:31:23;13.40;99.90
19870;DHT22;10097;50.862;4.696;2023-04-25T15:33:48;13.50;99.90
19870;DHT22;10097;50.862;4.696;2023-04-25T15:36:14;13.80;99.90
19870;DHT22;10097;50.862;4.696;2023-04-25T15:38:41;14.00;99.90
19870;DHT22;10097;50.862;4.696;2023-04-25T15:41:07;13.70;99.90